sensor_id;sensor_type;location;lat;lon;timestamp;P1;durP1;ratioP1;P2;durP2;ratioP2
15412;SDS011;7805;49.554;7.632;2023-02-14T00:02:19;18.03;;;12.40;;
15412;SDS011;7805;49.554;7.632;2023-02-14T00:04:45;18.90;;;12.30;;
15412;SDS011;7805;49.554;7.632;2023-02-14T00:07:12;20.13;;;12.40;;
15412;SDS011;7805;49.554;7.632;2023-02-14T00:09:38;20.67;;;12.77;;
15412;SDS011;7805;49.554;7.632;2023-02-14T00:12:04;19.40;;;12.20;;
15412;SDS011;7805;49.554;7.632;2023-02-14T00:14:30;17.87;;;12.67;;
15412;SDS011;7805;49.554;7.632;2023-02-14T00:17:14;18.37;;;12.87;;
15412;SDS011;7805;49.554;7.632;2023-02-14T00:19:40;19.97;;;11.60;;
15412;SDS011;7805;49.554;7.632;2023-02-14T00:22:05;19.10;;;12.40;;
15412;SDS011;7805;49.554;7.632;2023-02-14T00:24:31;18.27;;;11.77;;
15412;SDS011;7805;49.554;7.632;2023-02-14T00:26:57;16.43;;;11.67;;
15412;SDS011;7805;49.554;7.632;2023-02-14T00:29:24;18.17;;;12.20;;
15412;SDS011;7805;49.554;7.632;2023-02-14T00:31:52;18.70;;;13.30;;
15412;SDS011;7805;49.554;7.632;2023-02-14T00:34:17;17.30;;;13.27;;
15412;SDS011;7805;49.554;7.632;2023-02-14T00:36:44;19.53;;;11.97;;
15412;SDS011;7805;49.554;7.632;2023-02-14T00:39:11;20.57;;;12.93;;
15412;SDS011;7805;49.554;7.632;2023-02-14T00:41:38;19.00;;;12.33;;
15412;SDS011;7805;49.554;7.632;2023-02-14T00:44:05;16.03;;;11.47;;
15412;SDS011;7805;49.554;7.632;2023-02-14T00:46:31;17.17;;;11.70;;
15412;SDS011;7805;49.554;7.632;2023-02-14T00:48:58;17.87;;;12.07;;
15412;SDS011;7805;49.554;7.632;2023-02-14T00:51:24;16.33;;;11.13;;
15412;SDS011;7805;49.554;7.632;2023-02-14T00:53:49;19.20;;;12.47;;
15412;SDS011;7805;49.554;7.632;2023-02-14T00:56:16;16.70;;;11.23;;
15412;SDS011;7805;49.554;7.632;2023-02-14T00:58:42;15.67;;;11.10;;
15412;SDS011;7805;49.554;7.632;2023-02-14T01:01:08;17.67;;;12.47;;
15412;SDS011;7805;49.554;7.632;2023-02-14T01:03:34;18.77;;;12.13;;
15412;SDS011;7805;49.554;7.632;2023-02-14T01:06:00;20.63;;;12.50;;
15412;SDS011;7805;49.554;7.632;2023-02-14T01:08:26;18.90;;;12.37;;
15412;SDS011;7805;49.554;7.632;2023-02-14T01:10:52;17.37;;;12.20;;
15412;SDS011;7805;49.554;7.632;2023-02-14T01:13:18;18.23;;;11.47;;
15412;SDS011;7805;49.554;7.632;2023-02-14T01:15:45;16.60;;;10.63;;
15412;SDS011;7805;49.554;7.632;2023-02-14T01:18:12;14.97;;;11.33;;
15412;SDS011;7805;49.554;7.632;2023-02-14T01:20:39;18.27;;;11.03;;
15412;SDS011;7805;49.554;7.632;2023-02-14T01:23:05;14.17;;;10.60;;
15412;SDS011;7805;49.554;7.632;2023-02-14T01:25:31;18.13;;;11.07;;
15412;SDS011;7805;49.554;7.632;2023-02-14T01:27:57;16.83;;;10.97;;
15412;SDS011;7805;49.554;7.632;2023-02-14T01:30:23;17.90;;;11.10;;
15412;SDS011;7805;49.554;7.632;2023-02-14T01:32:49;15.00;;;10.90;;
15412;SDS011;7805;49.554;7.632;2023-02-14T01:35:15;17.03;;;10.70;;
15412;SDS011;7805;49.554;7.632;2023-02-14T01:37:41;16.63;;;11.50;;
15412;SDS011;7805;49.554;7.632;2023-02-14T01:40:07;17.97;;;11.70;;
15412;SDS011;7805;49.554;7.632;2023-02-14T01:42:34;15.40;;;10.17;;
15412;SDS011;7805;49.554;7.632;2023-02-14T01:45:02;15.80;;;10.47;;
15412;SDS011;7805;49.554;7.632;2023-02-14T01:47:32;14.50;;;10.20;;
15412;SDS011;7805;49.554;7.632;2023-02-14T01:53:03;17.07;;;11.47;;
15412;SDS011;7805;49.554;7.632;2023-02-14T01:55:35;13.90;;;9.63;;
15412;SDS011;7805;49.554;7.632;2023-02-14T01:58:04;15.00;;;10.67;;
15412;SDS011;7805;49.554;7.632;2023-02-14T02:00:33;15.40;;;10.40;;
15412;SDS011;7805;49.554;7.632;2023-02-14T02:03:19;18.13;;;11.73;;
15412;SDS011;7805;49.554;7.632;2023-02-14T02:05:50;21.63;;;12.07;;
15412;SDS011;7805;49.554;7.632;2023-02-14T02:08:19;18.23;;;11.23;;
15412;SDS011;7805;49.554;7.632;2023-02-14T02:10:45;18.07;;;11.73;;
15412;SDS011;7805;49.554;7.632;2023-02-14T02:13:16;16.80;;;11.33;;
15412;SDS011;7805;49.554;7.632;2023-02-14T02:24:12;22.40;;;13.40;;
15412;SDS011;7805;49.554;7.632;2023-02-14T02:38:37;21.73;;;13.17;;
15412;SDS011;7805;49.554;7.632;2023-02-14T02:44:02;19.83;;;13.27;;
15412;SDS011;7805;49.554;7.632;2023-02-14T02:46:54;27.23;;;14.27;;
15412;SDS011;7805;49.554;7.632;2023-02-14T02:55:43;34.17;;;16.90;;
15412;SDS011;7805;49.554;7.632;2023-02-14T02:58:50;31.30;;;16.03;;
15412;SDS011;7805;49.554;7.632;2023-02-14T03:01:20;30.80;;;16.27;;
15412;SDS011;7805;49.554;7.632;2023-02-14T03:03:51;31.87;;;16.93;;
15412;SDS011;7805;49.554;7.632;2023-02-14T03:06:41;37.47;;;17.00;;
15412;SDS011;7805;49.554;7.632;2023-02-14T03:09:52;31.03;;;16.43;;
15412;SDS011;7805;49.554;7.632;2023-02-14T03:14:32;31.50;;;15.53;;
15412;SDS011;7805;49.554;7.632;2023-02-14T03:17:14;27.60;;;17.17;;
15412;SDS011;7805;49.554;7.632;2023-02-14T03:20:00;31.87;;;17.77;;
15412;SDS011;7805;49.554;7.632;2023-02-14T03:22:47;27.30;;;16.70;;
15412;SDS011;7805;49.554;7.632;2023-02-14T03:25:27;30.23;;;17.00;;
15412;SDS011;7805;49.554;7.632;2023-02-14T03:33:56;28.43;;;16.53;;
15412;SDS011;7805;49.554;7.632;2023-02-14T03:36:41;52.77;;;17.90;;
15412;SDS011;7805;49.554;7.632;2023-02-14T03:41:59;29.27;;;16.37;;
15412;SDS011;7805;49.554;7.632;2023-02-14T03:44:36;28.60;;;15.73;;
15412;SDS011;7805;49.554;7.632;2023-02-14T03:47:05;32.67;;;15.70;;
15412;SDS011;7805;49.554;7.632;2023-02-14T03:49:35;31.73;;;15.23;;
15412;SDS011;7805;49.554;7.632;2023-02-14T03:52:04;27.07;;;15.50;;
15412;SDS011;7805;49.554;7.632;2023-02-14T03:54:32;32.43;;;16.33;;
15412;SDS011;7805;49.554;7.632;2023-02-14T03:57:22;29.13;;;15.90;;
15412;SDS011;7805;49.554;7.632;2023-02-14T03:59:48;30.87;;;15.30;;
15412;SDS011;7805;49.554;7.632;2023-02-14T04:02:19;25.83;;;15.90;;
15412;SDS011;7805;49.554;7.632;2023-02-14T04:04:53;24.00;;;14.03;;
15412;SDS011;7805;49.554;7.632;2023-02-14T04:07:22;29.47;;;15.40;;
15412;SDS011;7805;49.554;7.632;2023-02-14T04:09:48;22.60;;;14.43;;
15412;SDS011;7805;49.554;7.632;2023-02-14T04:12:14;24.27;;;13.63;;
15412;SDS011;7805;49.554;7.632;2023-02-14T04:14:41;26.20;;;14.57;;
15412;SDS011;7805;49.554;7.632;2023-02-14T04:17:07;26.27;;;15.43;;
15412;SDS011;7805;49.554;7.632;2023-02-14T04:19:51;28.97;;;16.27;;
15412;SDS011;7805;49.554;7.632;2023-02-14T04:22:17;25.30;;;14.20;;
15412;SDS011;7805;49.554;7.632;2023-02-14T04:24:42;26.43;;;14.87;;
15412;SDS011;7805;49.554;7.632;2023-02-14T04:27:08;24.73;;;13.87;;
15412;SDS011;7805;49.554;7.632;2023-02-14T04:29:44;24.13;;;13.53;;
15412;SDS011;7805;49.554;7.632;2023-02-14T04:32:13;23.50;;;13.23;;
15412;SDS011;7805;49.554;7.632;2023-02-14T04:34:40;22.63;;;13.47;;
15412;SDS011;7805;49.554;7.632;2023-02-14T04:37:06;23.03;;;13.93;;
15412;SDS011;7805;49.554;7.632;2023-02-14T04:39:31;25.73;;;14.67;;
15412;SDS011;7805;49.554;7.632;2023-02-14T04:41:57;27.00;;;14.53;;
15412;SDS011;7805;49.554;7.632;2023-02-14T04:44:23;29.90;;;15.83;;
15412;SDS011;7805;49.554;7.632;2023-02-14T04:46:49;30.37;;;15.50;;
15412;SDS011;7805;49.554;7.632;2023-02-14T04:49:14;28.60;;;15.47;;
15412;SDS011;7805;49.554;7.632;2023-02-14T04:51:40;28.47;;;16.07;;
15412;SDS011;7805;49.554;7.632;2023-02-14T04:54:06;30.77;;;15.73;;
15412;SDS011;7805;49.554;7.632;2023-02-14T04:56:31;27.30;;;14.57;;
15412;SDS011;7805;49.554;7.632;2023-02-14T04:58:57;27.43;;;15.13;;
15412;SDS011;7805;49.554;7.632;2023-02-14T05:01:23;25.47;;;14.53;;
15412;SDS011;7805;49.554;7.632;2023-02-14T05:03:48;27.90;;;14.20;;
15412;SDS011;7805;49.554;7.632;2023-02-14T05:06:14;22.40;;;13.27;;
15412;SDS011;7805;49.554;7.632;2023-02-14T05:08:39;31.03;;;14.37;;
15412;SDS011;7805;49.554;7.632;2023-02-14T05:11:05;29.27;;;15.57;;
15412;SDS011;7805;49.554;7.632;2023-02-14T05:13:30;30.60;;;15.40;;
15412;SDS011;7805;49.554;7.632;2023-02-14T05:15:56;31.80;;;16.87;;
15412;SDS011;7805;49.554;7.632;2023-02-14T05:18:22;32.70;;;15.87;;
15412;SDS011;7805;49.554;7.632;2023-02-14T05:20:48;26.27;;;14.77;;
15412;SDS011;7805;49.554;7.632;2023-02-14T05:23:15;28.37;;;16.23;;
15412;SDS011;7805;49.554;7.632;2023-02-14T05:25:41;34.33;;;16.50;;
15412;SDS011;7805;49.554;7.632;2023-02-14T05:28:07;32.40;;;16.30;;
15412;SDS011;7805;49.554;7.632;2023-02-14T05:30:33;29.00;;;15.27;;
15412;SDS011;7805;49.554;7.632;2023-02-14T05:32:59;33.23;;;16.93;;
15412;SDS011;7805;49.554;7.632;2023-02-14T05:35:25;26.13;;;14.73;;
15412;SDS011;7805;49.554;7.632;2023-02-14T05:37:51;28.60;;;15.30;;
15412;SDS011;7805;49.554;7.632;2023-02-14T05:40:17;27.43;;;14.97;;
15412;SDS011;7805;49.554;7.632;2023-02-14T05:42:43;31.00;;;15.83;;
15412;SDS011;7805;49.554;7.632;2023-02-14T05:45:08;34.90;;;16.30;;
15412;SDS011;7805;49.554;7.632;2023-02-14T05:47:35;34.23;;;15.90;;
15412;SDS011;7805;49.554;7.632;2023-02-14T05:50:01;32.77;;;15.53;;
15412;SDS011;7805;49.554;7.632;2023-02-14T05:52:26;29.27;;;15.67;;
15412;SDS011;7805;49.554;7.632;2023-02-14T05:54:52;28.13;;;16.10;;
15412;SDS011;7805;49.554;7.632;2023-02-14T05:57:17;36.23;;;16.30;;
15412;SDS011;7805;49.554;7.632;2023-02-14T05:59:43;33.20;;;16.63;;
15412;SDS011;7805;49.554;7.632;2023-02-14T06:02:09;34.23;;;17.07;;
15412;SDS011;7805;49.554;7.632;2023-02-14T06:04:34;30.80;;;16.23;;
15412;SDS011;7805;49.554;7.632;2023-02-14T06:07:00;33.13;;;16.40;;
15412;SDS011;7805;49.554;7.632;2023-02-14T06:09:25;30.60;;;15.47;;
15412;SDS011;7805;49.554;7.632;2023-02-14T06:11:51;34.47;;;17.20;;
15412;SDS011;7805;49.554;7.632;2023-02-14T06:14:17;32.03;;;15.60;;
15412;SDS011;7805;49.554;7.632;2023-02-14T06:16:42;30.80;;;15.77;;
15412;SDS011;7805;49.554;7.632;2023-02-14T06:19:08;34.67;;;16.70;;
15412;SDS011;7805;49.554;7.632;2023-02-14T06:21:34;37.37;;;16.97;;
15412;SDS011;7805;49.554;7.632;2023-02-14T06:23:59;37.50;;;17.10;;
15412;SDS011;7805;49.554;7.632;2023-02-14T06:26:25;35.63;;;16.27;;
15412;SDS011;7805;49.554;7.632;2023-02-14T06:28:55;30.60;;;16.53;;
15412;SDS011;7805;49.554;7.632;2023-02-14T06:31:23;29.17;;;15.30;;
15412;SDS011;7805;49.554;7.632;2023-02-14T06:33:52;29.97;;;15.20;;
15412;SDS011;7805;49.554;7.632;2023-02-14T06:36:18;48.87;;;16.90;;
15412;SDS011;7805;49.554;7.632;2023-02-14T06:38:44;40.53;;;15.87;;
15412;SDS011;7805;49.554;7.632;2023-02-14T06:41:11;33.93;;;15.70;;
15412;SDS011;7805;49.554;7.632;2023-02-14T06:43:38;35.93;;;15.30;;
15412;SDS011;7805;49.554;7.632;2023-02-14T06:46:04;38.90;;;16.07;;
15412;SDS011;7805;49.554;7.632;2023-02-14T06:48:30;38.00;;;14.93;;
15412;SDS011;7805;49.554;7.632;2023-02-14T06:50:56;28.57;;;14.87;;
15412;SDS011;7805;49.554;7.632;2023-02-14T06:53:22;27.10;;;15.23;;
15412;SDS011;7805;49.554;7.632;2023-02-14T06:55:48;26.83;;;14.37;;
15412;SDS011;7805;49.554;7.632;2023-02-14T06:58:13;27.80;;;14.93;;
15412;SDS011;7805;49.554;7.632;2023-02-14T07:00:39;22.43;;;13.80;;
15412;SDS011;7805;49.554;7.632;2023-02-14T07:03:05;30.20;;;15.87;;
15412;SDS011;7805;49.554;7.632;2023-02-14T07:05:31;31.97;;;15.57;;
15412;SDS011;7805;49.554;7.632;2023-02-14T07:07:58;27.53;;;16.47;;
15412;SDS011;7805;49.554;7.632;2023-02-14T07:10:24;35.83;;;15.97;;
15412;SDS011;7805;49.554;7.632;2023-02-14T07:12:49;45.17;;;15.57;;
15412;SDS011;7805;49.554;7.632;2023-02-14T07:15:15;38.93;;;16.10;;
15412;SDS011;7805;49.554;7.632;2023-02-14T07:17:41;25.10;;;13.40;;
15412;SDS011;7805;49.554;7.632;2023-02-14T07:20:07;36.63;;;16.07;;
15412;SDS011;7805;49.554;7.632;2023-02-14T07:22:33;27.43;;;14.60;;
15412;SDS011;7805;49.554;7.632;2023-02-14T07:25:00;43.17;;;15.33;;
15412;SDS011;7805;49.554;7.632;2023-02-14T07:27:25;24.47;;;14.03;;
15412;SDS011;7805;49.554;7.632;2023-02-14T07:29:51;31.00;;;14.33;;
15412;SDS011;7805;49.554;7.632;2023-02-14T07:32:17;31.20;;;14.20;;
15412;SDS011;7805;49.554;7.632;2023-02-14T07:34:42;24.53;;;13.83;;
15412;SDS011;7805;49.554;7.632;2023-02-14T07:37:08;20.33;;;12.63;;
15412;SDS011;7805;49.554;7.632;2023-02-14T07:39:34;26.90;;;15.37;;
15412;SDS011;7805;49.554;7.632;2023-02-14T07:41:59;25.53;;;14.63;;
15412;SDS011;7805;49.554;7.632;2023-02-14T07:44:26;24.07;;;14.93;;
15412;SDS011;7805;49.554;7.632;2023-02-14T07:46:51;22.80;;;14.10;;
15412;SDS011;7805;49.554;7.632;2023-02-14T07:49:17;29.27;;;13.73;;
15412;SDS011;7805;49.554;7.632;2023-02-14T07:51:42;49.93;;;13.80;;
15412;SDS011;7805;49.554;7.632;2023-02-14T07:54:08;22.97;;;13.73;;
15412;SDS011;7805;49.554;7.632;2023-02-14T07:56:33;34.30;;;14.63;;
15412;SDS011;7805;49.554;7.632;2023-02-14T07:58:59;22.17;;;12.57;;
15412;SDS011;7805;49.554;7.632;2023-02-14T08:01:25;24.53;;;12.80;;
15412;SDS011;7805;49.554;7.632;2023-02-14T08:03:50;21.63;;;12.60;;
15412;SDS011;7805;49.554;7.632;2023-02-14T08:06:20;23.50;;;13.40;;
15412;SDS011;7805;49.554;7.632;2023-02-14T08:08:46;24.37;;;13.63;;
15412;SDS011;7805;49.554;7.632;2023-02-14T08:11:12;25.70;;;14.03;;
15412;SDS011;7805;49.554;7.632;2023-02-14T08:13:57;20.57;;;13.47;;
15412;SDS011;7805;49.554;7.632;2023-02-14T08:16:23;23.17;;;14.07;;
15412;SDS011;7805;49.554;7.632;2023-02-14T08:18:48;23.67;;;14.20;;
15412;SDS011;7805;49.554;7.632;2023-02-14T08:21:14;24.13;;;14.77;;
15412;SDS011;7805;49.554;7.632;2023-02-14T08:23:41;26.20;;;15.10;;
15412;SDS011;7805;49.554;7.632;2023-02-14T08:26:07;23.87;;;15.03;;
15412;SDS011;7805;49.554;7.632;2023-02-14T08:28:33;22.33;;;13.93;;
15412;SDS011;7805;49.554;7.632;2023-02-14T08:30:59;22.40;;;14.43;;
15412;SDS011;7805;49.554;7.632;2023-02-14T08:33:25;22.33;;;14.17;;
15412;SDS011;7805;49.554;7.632;2023-02-14T08:35:51;25.37;;;14.53;;
15412;SDS011;7805;49.554;7.632;2023-02-14T08:38:17;21.30;;;14.50;;
15412;SDS011;7805;49.554;7.632;2023-02-14T08:40:43;33.17;;;20.40;;
15412;SDS011;7805;49.554;7.632;2023-02-14T08:43:09;22.93;;;15.87;;
15412;SDS011;7805;49.554;7.632;2023-02-14T08:45:35;22.00;;;15.27;;
15412;SDS011;7805;49.554;7.632;2023-02-14T08:48:02;22.10;;;15.13;;
15412;SDS011;7805;49.554;7.632;2023-02-14T08:50:30;23.23;;;15.60;;
15412;SDS011;7805;49.554;7.632;2023-02-14T08:52:56;23.07;;;15.63;;
15412;SDS011;7805;49.554;7.632;2023-02-14T08:55:22;23.70;;;15.10;;
15412;SDS011;7805;49.554;7.632;2023-02-14T08:57:47;21.00;;;14.40;;
15412;SDS011;7805;49.554;7.632;2023-02-14T09:00:13;27.97;;;16.33;;
15412;SDS011;7805;49.554;7.632;2023-02-14T09:02:39;61.30;;;23.57;;
15412;SDS011;7805;49.554;7.632;2023-02-14T09:05:05;34.90;;;16.13;;
15412;SDS011;7805;49.554;7.632;2023-02-14T09:07:33;25.10;;;16.17;;
15412;SDS011;7805;49.554;7.632;2023-02-14T09:09:59;21.20;;;15.17;;
15412;SDS011;7805;49.554;7.632;2023-02-14T09:12:25;29.90;;;17.10;;
15412;SDS011;7805;49.554;7.632;2023-02-14T09:14:51;22.13;;;14.97;;
15412;SDS011;7805;49.554;7.632;2023-02-14T09:17:16;19.23;;;13.40;;
15412;SDS011;7805;49.554;7.632;2023-02-14T09:19:42;20.13;;;13.47;;
15412;SDS011;7805;49.554;7.632;2023-02-14T09:22:08;26.57;;;17.93;;
15412;SDS011;7805;49.554;7.632;2023-02-14T09:24:36;21.67;;;15.70;;
15412;SDS011;7805;49.554;7.632;2023-02-14T09:27:03;24.27;;;14.90;;
15412;SDS011;7805;49.554;7.632;2023-02-14T09:29:29;22.23;;;15.77;;
15412;SDS011;7805;49.554;7.632;2023-02-14T09:31:55;19.60;;;14.00;;
15412;SDS011;7805;49.554;7.632;2023-02-14T09:34:22;17.70;;;13.67;;
15412;SDS011;7805;49.554;7.632;2023-02-14T09:36:48;19.07;;;14.03;;
15412;SDS011;7805;49.554;7.632;2023-02-14T09:39:14;18.43;;;13.73;;
15412;SDS011;7805;49.554;7.632;2023-02-14T09:47:20;19.23;;;12.83;;
15412;SDS011;7805;49.554;7.632;2023-02-14T09:49:52;18.63;;;14.33;;
15412;SDS011;7805;49.554;7.632;2023-02-14T09:52:20;22.50;;;18.67;;
15412;SDS011;7805;49.554;7.632;2023-02-14T09:54:50;18.37;;;14.87;;
15412;SDS011;7805;49.554;7.632;2023-02-14T10:05:25;20.93;;;14.93;;
15412;SDS011;7805;49.554;7.632;2023-02-14T10:08:04;19.70;;;15.20;;
15412;SDS011;7805;49.554;7.632;2023-02-14T10:10:43;21.80;;;18.00;;
15412;SDS011;7805;49.554;7.632;2023-02-14T10:13:29;21.13;;;15.53;;
15412;SDS011;7805;49.554;7.632;2023-02-14T10:16:53;19.17;;;14.77;;
15412;SDS011;7805;49.554;7.632;2023-02-14T10:22:08;21.77;;;16.87;;
15412;SDS011;7805;49.554;7.632;2023-02-14T10:29:56;39.73;;;26.77;;
15412;SDS011;7805;49.554;7.632;2023-02-14T10:32:26;33.17;;;22.27;;
15412;SDS011;7805;49.554;7.632;2023-02-14T10:38:06;28.37;;;20.30;;
15412;SDS011;7805;49.554;7.632;2023-02-14T10:48:37;24.47;;;18.37;;
15412;SDS011;7805;49.554;7.632;2023-02-14T10:51:14;27.03;;;19.07;;
15412;SDS011;7805;49.554;7.632;2023-02-14T10:59:23;25.07;;;18.33;;
15412;SDS011;7805;49.554;7.632;2023-02-14T11:01:52;26.83;;;18.43;;
15412;SDS011;7805;49.554;7.632;2023-02-14T11:04:20;29.27;;;20.17;;
15412;SDS011;7805;49.554;7.632;2023-02-14T11:06:47;28.30;;;18.87;;
15412;SDS011;7805;49.554;7.632;2023-02-14T11:09:14;27.37;;;18.27;;
15412;SDS011;7805;49.554;7.632;2023-02-14T11:11:54;29.37;;;19.50;;
15412;SDS011;7805;49.554;7.632;2023-02-14T11:14:26;33.10;;;20.93;;
15412;SDS011;7805;49.554;7.632;2023-02-14T11:16:55;31.87;;;20.63;;
15412;SDS011;7805;49.554;7.632;2023-02-14T11:21:56;29.70;;;20.60;;
15412;SDS011;7805;49.554;7.632;2023-02-14T11:26:58;26.80;;;17.60;;
15412;SDS011;7805;49.554;7.632;2023-02-14T11:29:34;24.27;;;16.90;;
15412;SDS011;7805;49.554;7.632;2023-02-14T11:32:21;27.93;;;18.87;;
15412;SDS011;7805;49.554;7.632;2023-02-14T11:34:59;26.60;;;18.87;;
15412;SDS011;7805;49.554;7.632;2023-02-14T11:38:20;27.30;;;19.90;;
15412;SDS011;7805;49.554;7.632;2023-02-14T11:42:53;25.47;;;17.13;;
15412;SDS011;7805;49.554;7.632;2023-02-14T11:45:35;24.30;;;17.63;;
15412;SDS011;7805;49.554;7.632;2023-02-14T11:48:06;25.60;;;18.30;;
15412;SDS011;7805;49.554;7.632;2023-02-14T11:50:41;26.67;;;18.50;;
15412;SDS011;7805;49.554;7.632;2023-02-14T11:53:09;26.07;;;18.60;;
15412;SDS011;7805;49.554;7.632;2023-02-14T11:55:37;26.67;;;18.57;;
15412;SDS011;7805;49.554;7.632;2023-02-14T11:58:03;28.17;;;18.93;;
15412;SDS011;7805;49.554;7.632;2023-02-14T12:00:31;27.03;;;19.50;;
15412;SDS011;7805;49.554;7.632;2023-02-14T12:02:58;27.90;;;20.47;;
15412;SDS011;7805;49.554;7.632;2023-02-14T12:05:45;27.93;;;21.10;;
15412;SDS011;7805;49.554;7.632;2023-02-14T12:08:12;28.63;;;19.80;;
15412;SDS011;7805;49.554;7.632;2023-02-14T12:10:39;27.63;;;19.70;;
15412;SDS011;7805;49.554;7.632;2023-02-14T12:20:48;27.83;;;19.73;;
15412;SDS011;7805;49.554;7.632;2023-02-14T12:23:34;29.77;;;19.87;;
15412;SDS011;7805;49.554;7.632;2023-02-14T12:31:58;26.53;;;19.30;;
15412;SDS011;7805;49.554;7.632;2023-02-14T12:34:26;24.50;;;18.30;;
15412;SDS011;7805;49.554;7.632;2023-02-14T12:47:30;27.10;;;18.73;;
15412;SDS011;7805;49.554;7.632;2023-02-14T12:50:28;28.07;;;20.60;;
15412;SDS011;7805;49.554;7.632;2023-02-14T12:58:44;25.97;;;19.17;;
15412;SDS011;7805;49.554;7.632;2023-02-14T13:04:28;26.03;;;18.93;;
15412;SDS011;7805;49.554;7.632;2023-02-14T13:12:27;30.00;;;20.47;;
15412;SDS011;7805;49.554;7.632;2023-02-14T13:20:41;26.60;;;19.53;;
15412;SDS011;7805;49.554;7.632;2023-02-14T13:28:52;27.57;;;20.20;;
15412;SDS011;7805;49.554;7.632;2023-02-14T13:31:22;33.13;;;20.80;;
15412;SDS011;7805;49.554;7.632;2023-02-14T13:33:49;30.20;;;20.80;;
15412;SDS011;7805;49.554;7.632;2023-02-14T13:36:18;29.03;;;20.07;;
15412;SDS011;7805;49.554;7.632;2023-02-14T13:38:46;26.07;;;19.23;;
15412;SDS011;7805;49.554;7.632;2023-02-14T13:41:14;28.40;;;20.80;;
15412;SDS011;7805;49.554;7.632;2023-02-14T13:43:48;28.67;;;20.63;;
15412;SDS011;7805;49.554;7.632;2023-02-14T13:46:14;29.53;;;20.53;;
15412;SDS011;7805;49.554;7.632;2023-02-14T13:48:58;26.17;;;18.93;;
15412;SDS011;7805;49.554;7.632;2023-02-14T13:51:59;26.67;;;19.53;;
15412;SDS011;7805;49.554;7.632;2023-02-14T13:56:55;28.27;;;20.10;;
15412;SDS011;7805;49.554;7.632;2023-02-14T13:59:27;24.37;;;18.40;;
15412;SDS011;7805;49.554;7.632;2023-02-14T14:02:28;27.30;;;20.13;;
15412;SDS011;7805;49.554;7.632;2023-02-14T14:04:52;25.53;;;20.20;;
15412;SDS011;7805;49.554;7.632;2023-02-14T14:15:12;27.40;;;21.10;;
15412;SDS011;7805;49.554;7.632;2023-02-14T14:20:48;26.50;;;20.30;;
15412;SDS011;7805;49.554;7.632;2023-02-14T14:22:53;29.80;;;21.60;;
15412;SDS011;7805;49.554;7.632;2023-02-14T14:25:30;29.40;;;21.47;;
15412;SDS011;7805;49.554;7.632;2023-02-14T14:27:56;29.20;;;20.80;;
15412;SDS011;7805;49.554;7.632;2023-02-14T14:30:26;28.27;;;21.17;;
15412;SDS011;7805;49.554;7.632;2023-02-14T14:36:05;30.03;;;21.60;;
15412;SDS011;7805;49.554;7.632;2023-02-14T14:38:34;32.67;;;23.10;;
15412;SDS011;7805;49.554;7.632;2023-02-14T14:41:10;33.20;;;22.60;;
15412;SDS011;7805;49.554;7.632;2023-02-14T14:43:37;34.87;;;23.17;;
15412;SDS011;7805;49.554;7.632;2023-02-14T14:46:06;36.13;;;22.87;;
15412;SDS011;7805;49.554;7.632;2023-02-14T14:48:39;33.03;;;22.00;;
15412;SDS011;7805;49.554;7.632;2023-02-14T14:51:16;31.13;;;21.57;;
15412;SDS011;7805;49.554;7.632;2023-02-14T14:53:51;31.37;;;21.83;;
15412;SDS011;7805;49.554;7.632;2023-02-14T14:56:18;32.93;;;22.33;;
15412;SDS011;7805;49.554;7.632;2023-02-14T14:58:46;33.80;;;22.40;;
15412;SDS011;7805;49.554;7.632;2023-02-14T15:01:13;33.20;;;23.70;;
15412;SDS011;7805;49.554;7.632;2023-02-14T15:06:40;35.20;;;24.47;;
15412;SDS011;7805;49.554;7.632;2023-02-14T15:09:19;33.10;;;22.47;;
15412;SDS011;7805;49.554;7.632;2023-02-14T15:11:54;37.83;;;23.17;;
15412;SDS011;7805;49.554;7.632;2023-02-14T15:14:41;36.03;;;23.77;;
15412;SDS011;7805;49.554;7.632;2023-02-14T15:17:26;37.00;;;23.10;;
15412;SDS011;7805;49.554;7.632;2023-02-14T15:19:54;38.27;;;23.73;;
15412;SDS011;7805;49.554;7.632;2023-02-14T15:22:57;38.73;;;24.57;;
15412;SDS011;7805;49.554;7.632;2023-02-14T15:25:18;36.73;;;22.90;;
15412;SDS011;7805;49.554;7.632;2023-02-14T15:27:51;35.47;;;23.17;;
15412;SDS011;7805;49.554;7.632;2023-02-14T15:32:59;35.93;;;22.77;;
15412;SDS011;7805;49.554;7.632;2023-02-14T15:35:31;38.43;;;24.17;;
15412;SDS011;7805;49.554;7.632;2023-02-14T15:37:59;35.53;;;23.10;;
15412;SDS011;7805;49.554;7.632;2023-02-14T15:40:29;34.30;;;21.73;;
15412;SDS011;7805;49.554;7.632;2023-02-14T15:43:20;33.57;;;21.03;;
15412;SDS011;7805;49.554;7.632;2023-02-14T15:45:51;34.80;;;22.90;;
15412;SDS011;7805;49.554;7.632;2023-02-14T15:50:53;36.10;;;23.47;;
15412;SDS011;7805;49.554;7.632;2023-02-14T15:56:17;40.03;;;23.17;;
15412;SDS011;7805;49.554;7.632;2023-02-14T15:58:45;38.30;;;24.60;;
15412;SDS011;7805;49.554;7.632;2023-02-14T16:01:12;37.53;;;23.87;;
15412;SDS011;7805;49.554;7.632;2023-02-14T16:03:38;34.60;;;23.43;;
15412;SDS011;7805;49.554;7.632;2023-02-14T16:06:15;40.20;;;25.43;;
15412;SDS011;7805;49.554;7.632;2023-02-14T16:08:57;42.63;;;24.13;;
15412;SDS011;7805;49.554;7.632;2023-02-14T16:11:27;37.00;;;23.67;;
15412;SDS011;7805;49.554;7.632;2023-02-14T16:13:55;38.07;;;24.23;;
15412;SDS011;7805;49.554;7.632;2023-02-14T16:16:21;38.93;;;23.53;;
15412;SDS011;7805;49.554;7.632;2023-02-14T16:18:48;36.60;;;22.87;;
15412;SDS011;7805;49.554;7.632;2023-02-14T16:21:18;41.43;;;24.60;;
15412;SDS011;7805;49.554;7.632;2023-02-14T16:24:09;38.23;;;24.07;;
15412;SDS011;7805;49.554;7.632;2023-02-14T16:26:43;41.13;;;25.03;;
15412;SDS011;7805;49.554;7.632;2023-02-14T16:29:10;36.40;;;23.43;;
15412;SDS011;7805;49.554;7.632;2023-02-14T16:31:42;38.23;;;25.07;;
15412;SDS011;7805;49.554;7.632;2023-02-14T16:34:11;40.63;;;24.83;;
15412;SDS011;7805;49.554;7.632;2023-02-14T16:36:38;38.97;;;23.43;;
15412;SDS011;7805;49.554;7.632;2023-02-14T16:39:04;39.93;;;23.57;;
15412;SDS011;7805;49.554;7.632;2023-02-14T16:41:37;40.27;;;24.00;;
15412;SDS011;7805;49.554;7.632;2023-02-14T16:44:11;38.00;;;23.80;;
15412;SDS011;7805;49.554;7.632;2023-02-14T16:46:41;40.57;;;23.23;;
15412;SDS011;7805;49.554;7.632;2023-02-14T16:49:09;37.63;;;23.47;;
15412;SDS011;7805;49.554;7.632;2023-02-14T16:51:36;39.30;;;23.10;;
15412;SDS011;7805;49.554;7.632;2023-02-14T16:54:06;38.30;;;22.40;;
15412;SDS011;7805;49.554;7.632;2023-02-14T16:56:37;40.23;;;23.40;;
15412;SDS011;7805;49.554;7.632;2023-02-14T16:59:05;38.70;;;23.37;;
15412;SDS011;7805;49.554;7.632;2023-02-14T17:01:30;41.03;;;22.43;;
15412;SDS011;7805;49.554;7.632;2023-02-14T17:03:56;35.03;;;22.10;;
15412;SDS011;7805;49.554;7.632;2023-02-14T17:06:23;37.10;;;22.67;;
15412;SDS011;7805;49.554;7.632;2023-02-14T17:08:56;39.47;;;22.07;;
15412;SDS011;7805;49.554;7.632;2023-02-14T17:11:24;40.17;;;24.10;;
15412;SDS011;7805;49.554;7.632;2023-02-14T17:13:52;38.40;;;22.73;;
15412;SDS011;7805;49.554;7.632;2023-02-14T17:16:18;39.17;;;23.57;;
15412;SDS011;7805;49.554;7.632;2023-02-14T17:18:45;36.53;;;22.33;;
15412;SDS011;7805;49.554;7.632;2023-02-14T17:21:13;36.27;;;22.33;;
15412;SDS011;7805;49.554;7.632;2023-02-14T17:23:40;35.27;;;21.87;;
15412;SDS011;7805;49.554;7.632;2023-02-14T17:26:06;44.93;;;28.27;;
15412;SDS011;7805;49.554;7.632;2023-02-14T17:28:32;48.57;;;26.57;;
15412;SDS011;7805;49.554;7.632;2023-02-14T17:30:57;41.13;;;24.17;;
15412;SDS011;7805;49.554;7.632;2023-02-14T17:33:23;39.53;;;23.73;;
15412;SDS011;7805;49.554;7.632;2023-02-14T17:35:49;47.00;;;26.10;;